sensor_id;sensor_type;location;lat;lon;timestamp;P1;durP1;ratioP1;P2;durP2;ratioP2
61204;SDS011;47068;55.780;37.520;2023-11-21T00:01:26;3.15;;;0.90;;
61204;SDS011;47068;55.780;37.520;2023-11-21T00:03:51;3.55;;;1.17;;
61204;SDS011;47068;55.780;37.520;2023-11-21T00:06:19;4.80;;;1.43;;
61204;SDS011;47068;55.780;37.520;2023-11-21T00:08:45;4.97;;;1.73;;
61204;SDS011;47068;55.780;37.520;2023-11-21T00:11:10;4.03;;;1.38;;
61204;SDS011;47068;55.780;37.520;2023-11-21T00:13:36;3.87;;;1.30;;
61204;SDS011;47068;55.780;37.520;2023-11-21T00:16:02;4.20;;;1.27;;
61204;SDS011;47068;55.780;37.520;2023-11-21T00:18:29;4.13;;;1.43;;
61204;SDS011;47068;55.780;37.520;2023-11-21T00:20:55;3.38;;;0.98;;
61204;SDS011;47068;55.780;37.520;2023-11-21T00:23:20;2.42;;;0.77;;
61204;SDS011;47068;55.780;37.520;2023-11-21T00:25:46;4.30;;;1.52;;
61204;SDS011;47068;55.780;37.520;2023-11-21T00:28:11;4.97;;;1.25;;
61204;SDS011;47068;55.780;37.520;2023-11-21T00:30:36;4.05;;;1.27;;
61204;SDS011;47068;55.780;37.520;2023-11-21T00:33:02;4.15;;;1.52;;
61204;SDS011;47068;55.780;37.520;2023-11-21T00:35:27;2.03;;;0.60;;
61204;SDS011;47068;55.780;37.520;2023-11-21T00:37:53;3.70;;;1.23;;
61204;SDS011;47068;55.780;37.520;2023-11-21T00:40:18;3.47;;;1.10;;
61204;SDS011;47068;55.780;37.520;2023-11-21T00:42:47;4.57;;;1.83;;
61204;SDS011;47068;55.780;37.520;2023-11-21T00:45:13;1.77;;;0.60;;
61204;SDS011;47068;55.780;37.520;2023-11-21T00:47:38;4.00;;;1.50;;
61204;SDS011;47068;55.780;37.520;2023-11-21T00:50:04;4.63;;;1.52;;
61204;SDS011;47068;55.780;37.520;2023-11-21T00:52:31;3.67;;;1.07;;
61204;SDS011;47068;55.780;37.520;2023-11-21T00:54:57;7.65;;;1.60;;
61204;SDS011;47068;55.780;37.520;2023-11-21T00:57:25;7.10;;;2.63;;
61204;SDS011;47068;55.780;37.520;2023-11-21T00:59:51;5.95;;;0.95;;
61204;SDS011;47068;55.780;37.520;2023-11-21T01:02:16;10.73;;;2.13;;
61204;SDS011;47068;55.780;37.520;2023-11-21T01:04:41;3.67;;;1.05;;
61204;SDS011;47068;55.780;37.520;2023-11-21T01:07:07;4.67;;;2.23;;
61204;SDS011;47068;55.780;37.520;2023-11-21T01:09:32;3.97;;;1.37;;
61204;SDS011;47068;55.780;37.520;2023-11-21T01:11:58;4.50;;;1.30;;
61204;SDS011;47068;55.780;37.520;2023-11-21T01:14:24;5.07;;;1.53;;
61204;SDS011;47068;55.780;37.520;2023-11-21T01:16:51;3.53;;;1.00;;
61204;SDS011;47068;55.780;37.520;2023-11-21T01:19:17;3.88;;;1.17;;
61204;SDS011;47068;55.780;37.520;2023-11-21T01:21:42;2.67;;;0.80;;
61204;SDS011;47068;55.780;37.520;2023-11-21T01:24:08;5.50;;;1.67;;
61204;SDS011;47068;55.780;37.520;2023-11-21T01:26:33;3.35;;;1.05;;
61204;SDS011;47068;55.780;37.520;2023-11-21T01:28:59;3.40;;;1.13;;
61204;SDS011;47068;55.780;37.520;2023-11-21T01:31:24;2.55;;;0.65;;
61204;SDS011;47068;55.780;37.520;2023-11-21T01:33:54;7.23;;;1.37;;
61204;SDS011;47068;55.780;37.520;2023-11-21T01:36:20;11.55;;;2.10;;
61204;SDS011;47068;55.780;37.520;2023-11-21T01:38:46;1.75;;;0.63;;
61204;SDS011;47068;55.780;37.520;2023-11-21T01:41:13;4.53;;;1.27;;
61204;SDS011;47068;55.780;37.520;2023-11-21T01:43:39;4.72;;;1.52;;
61204;SDS011;47068;55.780;37.520;2023-11-21T01:46:05;5.75;;;1.73;;
61204;SDS011;47068;55.780;37.520;2023-11-21T01:48:31;3.77;;;1.27;;
61204;SDS011;47068;55.780;37.520;2023-11-21T01:53:24;3.77;;;1.13;;
61204;SDS011;47068;55.780;37.520;2023-11-21T01:55:51;5.50;;;1.57;;
61204;SDS011;47068;55.780;37.520;2023-11-21T01:58:17;4.43;;;1.33;;
61204;SDS011;47068;55.780;37.520;2023-11-21T02:00:42;3.42;;;0.88;;
61204;SDS011;47068;55.780;37.520;2023-11-21T02:03:08;4.47;;;1.33;;
61204;SDS011;47068;55.780;37.520;2023-11-21T02:05:35;6.93;;;1.63;;
61204;SDS011;47068;55.780;37.520;2023-11-21T02:08:01;2.47;;;0.57;;
61204;SDS011;47068;55.780;37.520;2023-11-21T02:10:28;2.70;;;1.20;;
61204;SDS011;47068;55.780;37.520;2023-11-21T02:12:54;3.20;;;1.05;;
61204;SDS011;47068;55.780;37.520;2023-11-21T02:15:21;2.80;;;0.80;;
61204;SDS011;47068;55.780;37.520;2023-11-21T02:17:48;5.30;;;1.63;;
61204;SDS011;47068;55.780;37.520;2023-11-21T02:20:19;5.03;;;1.63;;
61204;SDS011;47068;55.780;37.520;2023-11-21T02:22:49;4.17;;;1.30;;
61204;SDS011;47068;55.780;37.520;2023-11-21T02:25:23;3.30;;;1.00;;
61204;SDS011;47068;55.780;37.520;2023-11-21T02:27:55;3.63;;;1.17;;
61204;SDS011;47068;55.780;37.520;2023-11-21T02:30:21;4.83;;;1.57;;
61204;SDS011;47068;55.780;37.520;2023-11-21T02:35:18;3.97;;;1.23;;
61204;SDS011;47068;55.780;37.520;2023-11-21T02:37:46;4.30;;;1.10;;
61204;SDS011;47068;55.780;37.520;2023-11-21T02:40:12;2.28;;;0.65;;
61204;SDS011;47068;55.780;37.520;2023-11-21T02:42:38;4.75;;;1.65;;
61204;SDS011;47068;55.780;37.520;2023-11-21T02:45:05;9.53;;;2.10;;
61204;SDS011;47068;55.780;37.520;2023-11-21T02:47:31;5.37;;;0.70;;
61204;SDS011;47068;55.780;37.520;2023-11-21T02:49:57;4.63;;;1.30;;
61204;SDS011;47068;55.780;37.520;2023-11-21T02:52:22;5.18;;;1.52;;
61204;SDS011;47068;55.780;37.520;2023-11-21T02:54:48;8.07;;;2.22;;
61204;SDS011;47068;55.780;37.520;2023-11-21T02:57:14;4.97;;;1.38;;
61204;SDS011;47068;55.780;37.520;2023-11-21T02:59:40;1.60;;;0.90;;
61204;SDS011;47068;55.780;37.520;2023-11-21T03:02:05;1.77;;;1.00;;
61204;SDS011;47068;55.780;37.520;2023-11-21T03:04:34;1.97;;;0.87;;
61204;SDS011;47068;55.780;37.520;2023-11-21T03:09:25;5.90;;;1.10;;
61204;SDS011;47068;55.780;37.520;2023-11-21T03:14:17;2.63;;;0.73;;
61204;SDS011;47068;55.780;37.520;2023-11-21T03:16:42;4.37;;;0.97;;
61204;SDS011;47068;55.780;37.520;2023-11-21T03:19:10;5.80;;;1.67;;
61204;SDS011;47068;55.780;37.520;2023-11-21T03:21:36;3.28;;;0.90;;
61204;SDS011;47068;55.780;37.520;2023-11-21T03:24:02;4.13;;;1.42;;
61204;SDS011;47068;55.780;37.520;2023-11-21T03:26:27;7.00;;;2.33;;
61204;SDS011;47068;55.780;37.520;2023-11-21T03:28:53;7.65;;;5.70;;
61204;SDS011;47068;55.780;37.520;2023-11-21T03:31:18;2.83;;;0.77;;
61204;SDS011;47068;55.780;37.520;2023-11-21T03:33:44;2.80;;;0.70;;
61204;SDS011;47068;55.780;37.520;2023-11-21T03:36:11;5.50;;;0.85;;
61204;SDS011;47068;55.780;37.520;2023-11-21T03:38:36;4.22;;;1.25;;
61204;SDS011;47068;55.780;37.520;2023-11-21T03:41:02;4.18;;;1.42;;
61204;SDS011;47068;55.780;37.520;2023-11-21T03:43:28;2.85;;;1.30;;
61204;SDS011;47068;55.780;37.520;2023-11-21T03:45:54;3.92;;;1.70;;
61204;SDS011;47068;55.780;37.520;2023-11-21T03:48:19;2.35;;;0.93;;
61204;SDS011;47068;55.780;37.520;2023-11-21T03:50:45;4.50;;;1.57;;
61204;SDS011;47068;55.780;37.520;2023-11-21T03:53:12;2.00;;;0.87;;
61204;SDS011;47068;55.780;37.520;2023-11-21T03:55:37;7.18;;;1.17;;
61204;SDS011;47068;55.780;37.520;2023-11-21T03:58:03;3.00;;;0.90;;
61204;SDS011;47068;55.780;37.520;2023-11-21T04:00:28;3.50;;;1.17;;
61204;SDS011;47068;55.780;37.520;2023-11-21T04:02:54;3.80;;;1.58;;
61204;SDS011;47068;55.780;37.520;2023-11-21T04:05:20;2.20;;;0.85;;
61204;SDS011;47068;55.780;37.520;2023-11-21T04:07:49;5.17;;;1.47;;
61204;SDS011;47068;55.780;37.520;2023-11-21T04:10:15;4.53;;;1.17;;
61204;SDS011;47068;55.780;37.520;2023-11-21T04:12:40;7.13;;;1.92;;
61204;SDS011;47068;55.780;37.520;2023-11-21T04:15:06;13.38;;;12.10;;
61204;SDS011;47068;55.780;37.520;2023-11-21T04:17:34;5.17;;;1.83;;
61204;SDS011;47068;55.780;37.520;2023-11-21T04:19:59;2.33;;;1.00;;
61204;SDS011;47068;55.780;37.520;2023-11-21T04:22:25;3.03;;;1.60;;
61204;SDS011;47068;55.780;37.520;2023-11-21T04:24:50;3.37;;;1.03;;
61204;SDS011;47068;55.780;37.520;2023-11-21T04:27:16;3.20;;;1.42;;
61204;SDS011;47068;55.780;37.520;2023-11-21T04:29:43;4.13;;;1.73;;
61204;SDS011;47068;55.780;37.520;2023-11-21T04:32:09;15.13;;;1.42;;
61204;SDS011;47068;55.780;37.520;2023-11-21T04:34:35;1.73;;;0.57;;
61204;SDS011;47068;55.780;37.520;2023-11-21T04:37:01;2.92;;;1.50;;
61204;SDS011;47068;55.780;37.520;2023-11-21T04:39:26;2.40;;;0.98;;
61204;SDS011;47068;55.780;37.520;2023-11-21T04:41:52;2.05;;;0.82;;
61204;SDS011;47068;55.780;37.520;2023-11-21T04:44:17;2.35;;;0.85;;
61204;SDS011;47068;55.780;37.520;2023-11-21T04:46:43;5.25;;;1.42;;
61204;SDS011;47068;55.780;37.520;2023-11-21T04:49:08;4.90;;;1.23;;
61204;SDS011;47068;55.780;37.520;2023-11-21T04:51:34;40.55;;;1.50;;
61204;SDS011;47068;55.780;37.520;2023-11-21T04:53:59;1.73;;;0.60;;
61204;SDS011;47068;55.780;37.520;2023-11-21T04:56:25;3.80;;;1.30;;
61204;SDS011;47068;55.780;37.520;2023-11-21T04:58:51;4.70;;;1.40;;
61204;SDS011;47068;55.780;37.520;2023-11-21T05:01:16;3.67;;;1.23;;
61204;SDS011;47068;55.780;37.520;2023-11-21T05:03:42;2.30;;;0.80;;
61204;SDS011;47068;55.780;37.520;2023-11-21T05:06:09;1.98;;;0.75;;
61204;SDS011;47068;55.780;37.520;2023-11-21T05:08:35;2.63;;;0.90;;
61204;SDS011;47068;55.780;37.520;2023-11-21T05:11:02;2.93;;;1.03;;
61204;SDS011;47068;55.780;37.520;2023-11-21T05:13:28;2.08;;;0.73;;
61204;SDS011;47068;55.780;37.520;2023-11-21T05:15:56;3.65;;;1.55;;
61204;SDS011;47068;55.780;37.520;2023-11-21T05:18:22;2.60;;;1.13;;
61204;SDS011;47068;55.780;37.520;2023-11-21T05:20:48;2.83;;;1.35;;
61204;SDS011;47068;55.780;37.520;2023-11-21T05:23:13;2.50;;;1.00;;
61204;SDS011;47068;55.780;37.520;2023-11-21T05:25:42;2.63;;;1.00;;
61204;SDS011;47068;55.780;37.520;2023-11-21T05:28:07;5.47;;;2.27;;
61204;SDS011;47068;55.780;37.520;2023-11-21T05:30:33;4.07;;;1.50;;
61204;SDS011;47068;55.780;37.520;2023-11-21T05:32:58;3.80;;;1.57;;
61204;SDS011;47068;55.780;37.520;2023-11-21T05:35:24;3.20;;;1.27;;
61204;SDS011;47068;55.780;37.520;2023-11-21T05:37:49;13.00;;;4.53;;
61204;SDS011;47068;55.780;37.520;2023-11-21T05:40:15;1.73;;;0.70;;
61204;SDS011;47068;55.780;37.520;2023-11-21T05:42:41;2.80;;;0.98;;
61204;SDS011;47068;55.780;37.520;2023-11-21T05:45:07;4.15;;;0.80;;
61204;SDS011;47068;55.780;37.520;2023-11-21T05:47:43;10.80;;;3.13;;
61204;SDS011;47068;55.780;37.520;2023-11-21T05:50:11;2.23;;;0.83;;
61204;SDS011;47068;55.780;37.520;2023-11-21T05:52:39;7.00;;;2.50;;
61204;SDS011;47068;55.780;37.520;2023-11-21T05:55:06;5.13;;;2.00;;
61204;SDS011;47068;55.780;37.520;2023-11-21T05:57:32;5.22;;;1.60;;
61204;SDS011;47068;55.780;37.520;2023-11-21T06:00:02;4.07;;;1.30;;
61204;SDS011;47068;55.780;37.520;2023-11-21T06:02:48;2.90;;;1.00;;
61204;SDS011;47068;55.780;37.520;2023-11-21T06:05:24;3.50;;;1.20;;
61204;SDS011;47068;55.780;37.520;2023-11-21T06:07:51;3.33;;;1.10;;
61204;SDS011;47068;55.780;37.520;2023-11-21T06:10:22;5.90;;;2.50;;
61204;SDS011;47068;55.780;37.520;2023-11-21T06:12:49;3.60;;;1.17;;
61204;SDS011;47068;55.780;37.520;2023-11-21T06:15:15;2.85;;;1.02;;
61204;SDS011;47068;55.780;37.520;2023-11-21T06:17:41;4.67;;;1.50;;
61204;SDS011;47068;55.780;37.520;2023-11-21T06:20:08;3.23;;;1.30;;
61204;SDS011;47068;55.780;37.520;2023-11-21T06:22:40;7.70;;;1.53;;
61204;SDS011;47068;55.780;37.520;2023-11-21T06:25:07;1.40;;;0.60;;
61204;SDS011;47068;55.780;37.520;2023-11-21T06:27:43;3.13;;;1.53;;
61204;SDS011;47068;55.780;37.520;2023-11-21T06:30:10;3.30;;;1.48;;
61204;SDS011;47068;55.780;37.520;2023-11-21T06:32:36;17.83;;;1.63;;
61204;SDS011;47068;55.780;37.520;2023-11-21T06:35:03;1.92;;;1.08;;
61204;SDS011;47068;55.780;37.520;2023-11-21T06:37:30;3.43;;;1.50;;
61204;SDS011;47068;55.780;37.520;2023-11-21T06:39:57;2.20;;;0.93;;
61204;SDS011;47068;55.780;37.520;2023-11-21T06:42:23;5.97;;;1.43;;
61204;SDS011;47068;55.780;37.520;2023-11-21T06:47:35;3.40;;;1.43;;
61204;SDS011;47068;55.780;37.520;2023-11-21T06:50:01;4.30;;;1.25;;
61204;SDS011;47068;55.780;37.520;2023-11-21T06:52:27;3.13;;;1.13;;
61204;SDS011;47068;55.780;37.520;2023-11-21T06:54:52;3.55;;;1.35;;
61204;SDS011;47068;55.780;37.520;2023-11-21T06:57:18;7.78;;;2.80;;
61204;SDS011;47068;55.780;37.520;2023-11-21T06:59:43;4.30;;;1.40;;
61204;SDS011;47068;55.780;37.520;2023-11-21T07:02:09;4.32;;;1.20;;
61204;SDS011;47068;55.780;37.520;2023-11-21T07:04:38;5.18;;;2.53;;
61204;SDS011;47068;55.780;37.520;2023-11-21T07:07:04;4.07;;;1.23;;
61204;SDS011;47068;55.780;37.520;2023-11-21T07:09:29;4.50;;;1.67;;
61204;SDS011;47068;55.780;37.520;2023-11-21T07:11:56;8.23;;;2.00;;
61204;SDS011;47068;55.780;37.520;2023-11-21T07:14:21;4.80;;;2.13;;
61204;SDS011;47068;55.780;37.520;2023-11-21T07:16:47;4.53;;;1.42;;
61204;SDS011;47068;55.780;37.520;2023-11-21T07:19:12;7.10;;;2.83;;
61204;SDS011;47068;55.780;37.520;2023-11-21T07:21:38;8.10;;;2.78;;
61204;SDS011;47068;55.780;37.520;2023-11-21T07:24:05;10.50;;;3.10;;
61204;SDS011;47068;55.780;37.520;2023-11-21T07:26:32;6.53;;;2.13;;
61204;SDS011;47068;55.780;37.520;2023-11-21T07:31:24;12.37;;;2.40;;
61204;SDS011;47068;55.780;37.520;2023-11-21T07:33:50;4.78;;;2.00;;
61204;SDS011;47068;55.780;37.520;2023-11-21T07:36:16;7.55;;;2.70;;
61204;SDS011;47068;55.780;37.520;2023-11-21T07:38:43;8.47;;;3.50;;
61204;SDS011;47068;55.780;37.520;2023-11-21T07:41:09;8.82;;;2.90;;
61204;SDS011;47068;55.780;37.520;2023-11-21T07:43:35;7.53;;;3.73;;
61204;SDS011;47068;55.780;37.520;2023-11-21T07:46:01;35.17;;;30.10;;
61204;SDS011;47068;55.780;37.520;2023-11-21T07:48:31;8.60;;;6.27;;
61204;SDS011;47068;55.780;37.520;2023-11-21T07:50:57;305.23;;;110.57;;
61204;SDS011;47068;55.780;37.520;2023-11-21T07:53:26;3.50;;;1.57;;
61204;SDS011;47068;55.780;37.520;2023-11-21T07:55:54;10.03;;;7.83;;
61204;SDS011;47068;55.780;37.520;2023-11-21T07:58:20;5.40;;;4.78;;
61204;SDS011;47068;55.780;37.520;2023-11-21T08:00:45;7.80;;;6.43;;
61204;SDS011;47068;55.780;37.520;2023-11-21T08:03:13;10.75;;;8.77;;
61204;SDS011;47068;55.780;37.520;2023-11-21T08:05:38;12.33;;;8.43;;
61204;SDS011;47068;55.780;37.520;2023-11-21T08:08:04;14.38;;;6.38;;
61204;SDS011;47068;55.780;37.520;2023-11-21T08:10:30;10.52;;;7.35;;
61204;SDS011;47068;55.780;37.520;2023-11-21T08:12:55;5.97;;;2.63;;
61204;SDS011;47068;55.780;37.520;2023-11-21T08:15:21;4.03;;;1.33;;
61204;SDS011;47068;55.780;37.520;2023-11-21T08:17:46;4.70;;;2.03;;
61204;SDS011;47068;55.780;37.520;2023-11-21T08:20:13;4.37;;;1.43;;
61204;SDS011;47068;55.780;37.520;2023-11-21T08:22:41;4.77;;;1.60;;
61204;SDS011;47068;55.780;37.520;2023-11-21T08:25:10;10.90;;;4.00;;
61204;SDS011;47068;55.780;37.520;2023-11-21T08:27:36;7.50;;;3.95;;
61204;SDS011;47068;55.780;37.520;2023-11-21T08:30:02;8.43;;;5.97;;
61204;SDS011;47068;55.780;37.520;2023-11-21T08:32:28;14.77;;;12.15;;
61204;SDS011;47068;55.780;37.520;2023-11-21T08:34:55;14.77;;;13.40;;
61204;SDS011;47068;55.780;37.520;2023-11-21T08:37:21;371.85;;;158.05;;
61204;SDS011;47068;55.780;37.520;2023-11-21T08:39:47;3.20;;;1.30;;
61204;SDS011;47068;55.780;37.520;2023-11-21T08:42:13;2.83;;;1.10;;
61204;SDS011;47068;55.780;37.520;2023-11-21T08:44:40;2.97;;;1.35;;
61204;SDS011;47068;55.780;37.520;2023-11-21T08:47:06;1.87;;;0.73;;
61204;SDS011;47068;55.780;37.520;2023-11-21T08:49:32;3.20;;;1.40;;
61204;SDS011;47068;55.780;37.520;2023-11-21T08:51:58;2.97;;;1.25;;
61204;SDS011;47068;55.780;37.520;2023-11-21T08:54:26;1.90;;;0.70;;
61204;SDS011;47068;55.780;37.520;2023-11-21T08:56:52;2.13;;;0.75;;
61204;SDS011;47068;55.780;37.520;2023-11-21T08:59:19;1.93;;;0.70;;
61204;SDS011;47068;55.780;37.520;2023-11-21T09:01:45;5.28;;;1.15;;
61204;SDS011;47068;55.780;37.520;2023-11-21T09:04:11;2.88;;;1.38;;
61204;SDS011;47068;55.780;37.520;2023-11-21T09:06:37;3.28;;;1.30;;
61204;SDS011;47068;55.780;37.520;2023-11-21T09:09:03;1.65;;;0.68;;
61204;SDS011;47068;55.780;37.520;2023-11-21T09:11:31;2.87;;;1.50;;
61204;SDS011;47068;55.780;37.520;2023-11-21T09:14:00;5.47;;;1.17;;
61204;SDS011;47068;55.780;37.520;2023-11-21T09:16:26;2.88;;;1.23;;
61204;SDS011;47068;55.780;37.520;2023-11-21T09:18:51;3.10;;;1.10;;
61204;SDS011;47068;55.780;37.520;2023-11-21T09:21:17;2.33;;;1.10;;
61204;SDS011;47068;55.780;37.520;2023-11-21T09:23:46;2.53;;;1.02;;
61204;SDS011;47068;55.780;37.520;2023-11-21T09:26:11;8.03;;;1.10;;
61204;SDS011;47068;55.780;37.520;2023-11-21T09:28:37;2.17;;;1.00;;
61204;SDS011;47068;55.780;37.520;2023-11-21T09:31:04;4.47;;;1.08;;
61204;SDS011;47068;55.780;37.520;2023-11-21T09:33:30;1.63;;;0.70;;
61204;SDS011;47068;55.780;37.520;2023-11-21T09:35:56;4.90;;;1.80;;
61204;SDS011;47068;55.780;37.520;2023-11-21T09:40:48;1.37;;;0.63;;
61204;SDS011;47068;55.780;37.520;2023-11-21T09:43:18;1.20;;;0.40;;
61204;SDS011;47068;55.780;37.520;2023-11-21T09:45:45;1.77;;;0.70;;
61204;SDS011;47068;55.780;37.520;2023-11-21T09:48:13;2.43;;;1.10;;
61204;SDS011;47068;55.780;37.520;2023-11-21T09:50:40;2.17;;;1.10;;
61204;SDS011;47068;55.780;37.520;2023-11-21T09:53:17;2.70;;;1.07;;
61204;SDS011;47068;55.780;37.520;2023-11-21T09:55:47;3.37;;;1.50;;
61204;SDS011;47068;55.780;37.520;2023-11-21T09:58:16;1.77;;;0.93;;
61204;SDS011;47068;55.780;37.520;2023-11-21T10:00:44;4.33;;;1.20;;
61204;SDS011;47068;55.780;37.520;2023-11-21T10:03:11;3.97;;;1.27;;
61204;SDS011;47068;55.780;37.520;2023-11-21T10:05:38;6.30;;;2.03;;
61204;SDS011;47068;55.780;37.520;2023-11-21T10:08:07;3.90;;;1.43;;
61204;SDS011;47068;55.780;37.520;2023-11-21T10:10:37;4.40;;;1.57;;
61204;SDS011;47068;55.780;37.520;2023-11-21T10:13:06;3.27;;;1.17;;
61204;SDS011;47068;55.780;37.520;2023-11-21T10:15:37;2.90;;;1.00;;
61204;SDS011;47068;55.780;37.520;2023-11-21T10:18:03;2.88;;;1.00;;
61204;SDS011;47068;55.780;37.520;2023-11-21T10:20:31;5.83;;;2.00;;
61204;SDS011;47068;55.780;37.520;2023-11-21T10:22:58;2.37;;;0.80;;
61204;SDS011;47068;55.780;37.520;2023-11-21T10:25:27;4.43;;;1.40;;
61204;SDS011;47068;55.780;37.520;2023-11-21T10:27:57;4.63;;;1.27;;
61204;SDS011;47068;55.780;37.520;2023-11-21T10:30:32;2.63;;;0.93;;
61204;SDS011;47068;55.780;37.520;2023-11-21T10:33:02;3.50;;;1.05;;
61204;SDS011;47068;55.780;37.520;2023-11-21T10:38:06;5.53;;;2.23;;
61204;SDS011;47068;55.780;37.520;2023-11-21T10:40:37;5.37;;;1.40;;
61204;SDS011;47068;55.780;37.520;2023-11-21T10:43:10;4.00;;;1.27;;
61204;SDS011;47068;55.780;37.520;2023-11-21T10:45:37;3.07;;;1.37;;
61204;SDS011;47068;55.780;37.520;2023-11-21T10:48:06;3.58;;;1.45;;
61204;SDS011;47068;55.780;37.520;2023-11-21T10:50:34;5.00;;;1.87;;
61204;SDS011;47068;55.780;37.520;2023-11-21T10:53:01;3.57;;;1.07;;
61204;SDS011;47068;55.780;37.520;2023-11-21T10:55:30;2.60;;;0.90;;
61204;SDS011;47068;55.780;37.520;2023-11-21T10:57:58;3.43;;;1.20;;
61204;SDS011;47068;55.780;37.520;2023-11-21T11:00:26;3.47;;;1.83;;
61204;SDS011;47068;55.780;37.520;2023-11-21T11:02:52;4.87;;;1.93;;
61204;SDS011;47068;55.780;37.520;2023-11-21T11:05:22;4.07;;;1.43;;
61204;SDS011;47068;55.780;37.520;2023-11-21T11:10:45;3.53;;;1.10;;
61204;SDS011;47068;55.780;37.520;2023-11-21T11:13:12;7.30;;;2.30;;
61204;SDS011;47068;55.780;37.520;2023-11-21T11:15:40;5.43;;;1.50;;
61204;SDS011;47068;55.780;37.520;2023-11-21T11:18:06;3.60;;;1.17;;
61204;SDS011;47068;55.780;37.520;2023-11-21T11:20:35;4.43;;;1.92;;
61204;SDS011;47068;55.780;37.520;2023-11-21T11:28:29;2.27;;;1.03;;
61204;SDS011;47068;55.780;37.520;2023-11-21T11:39:36;3.80;;;1.13;;
61204;SDS011;47068;55.780;37.520;2023-11-21T11:42:06;4.03;;;1.63;;
61204;SDS011;47068;55.780;37.520;2023-11-21T11:47:14;3.17;;;1.30;;
61204;SDS011;47068;55.780;37.520;2023-11-21T11:55:10;4.60;;;1.47;;
61204;SDS011;47068;55.780;37.520;2023-11-21T11:57:37;6.40;;;1.80;;
61204;SDS011;47068;55.780;37.520;2023-11-21T12:02:46;3.63;;;1.30;;
61204;SDS011;47068;55.780;37.520;2023-11-21T12:05:13;3.80;;;1.40;;
61204;SDS011;47068;55.780;37.520;2023-11-21T12:07:50;5.23;;;1.97;;
61204;SDS011;47068;55.780;37.520;2023-11-21T12:10:23;2.93;;;0.90;;
61204;SDS011;47068;55.780;37.520;2023-11-21T12:12:50;4.77;;;1.50;;
61204;SDS011;47068;55.780;37.520;2023-11-21T12:15:18;3.57;;;1.10;;
61204;SDS011;47068;55.780;37.520;2023-11-21T12:17:44;4.97;;;1.50;;
61204;SDS011;47068;55.780;37.520;2023-11-21T12:20:11;16.87;;;5.10;;
61204;SDS011;47068;55.780;37.520;2023-11-21T12:27:49;4.63;;;1.40;;
61204;SDS011;47068;55.780;37.520;2023-11-21T12:30:17;3.10;;;1.07;;
61204;SDS011;47068;55.780;37.520;2023-11-21T12:32:44;5.07;;;1.50;;
61204;SDS011;47068;55.780;37.520;2023-11-21T12:35:13;2.87;;;1.03;;
61204;SDS011;47068;55.780;37.520;2023-11-21T12:37:39;4.25;;;1.48;;
61204;SDS011;47068;55.780;37.520;2023-11-21T12:40:08;3.90;;;1.10;;
61204;SDS011;47068;55.780;37.520;2023-11-21T12:42:37;7.57;;;2.03;;
61204;SDS011;47068;55.780;37.520;2023-11-21T12:45:18;17.93;;;1.53;;
61204;SDS011;47068;55.780;37.520;2023-11-21T12:48:02;4.37;;;1.17;;
61204;SDS011;47068;55.780;37.520;2023-11-21T12:50:32;5.90;;;1.80;;
61204;SDS011;47068;55.780;37.520;2023-11-21T12:53:00;89.10;;;36.53;;
61204;SDS011;47068;55.780;37.520;2023-11-21T12:55:29;2.47;;;0.70;;
61204;SDS011;47068;55.780;37.520;2023-11-21T12:57:55;1.97;;;0.67;;
61204;SDS011;47068;55.780;37.520;2023-11-21T13:00:31;4.93;;;1.73;;
61204;SDS011;47068;55.780;37.520;2023-11-21T13:02:58;3.67;;;1.20;;
61204;SDS011;47068;55.780;37.520;2023-11-21T13:05:27;3.55;;;1.05;;
61204;SDS011;47068;55.780;37.520;2023-11-21T13:07:58;3.93;;;1.20;;
61204;SDS011;47068;55.780;37.520;2023-11-21T13:10:28;2.90;;;0.87;;
61204;SDS011;47068;55.780;37.520;2023-11-21T13:12:56;2.23;;;0.80;;
61204;SDS011;47068;55.780;37.520;2023-11-21T13:15:32;1.97;;;0.57;;
61204;SDS011;47068;55.780;37.520;2023-11-21T13:18:00;2.60;;;0.77;;
61204;SDS011;47068;55.780;37.520;2023-11-21T13:20:26;4.30;;;1.70;;
61204;SDS011;47068;55.780;37.520;2023-11-21T13:22:52;2.72;;;0.70;;
61204;SDS011;47068;55.780;37.520;2023-11-21T13:25:20;3.63;;;1.27;;
61204;SDS011;47068;55.780;37.520;2023-11-21T13:27:46;4.27;;;1.43;;
61204;SDS011;47068;55.780;37.520;2023-11-21T13:30:13;2.97;;;0.88;;
61204;SDS011;47068;55.780;37.520;2023-11-21T13:32:44;4.20;;;1.40;;
61204;SDS011;47068;55.780;37.520;2023-11-21T13:35:14;8.23;;;3.33;;
61204;SDS011;47068;55.780;37.520;2023-11-21T13:37:48;8.87;;;4.23;;
61204;SDS011;47068;55.780;37.520;2023-11-21T13:40:19;11.27;;;7.53;;
61204;SDS011;47068;55.780;37.520;2023-11-21T13:42:48;10.40;;;6.17;;
61204;SDS011;47068;55.780;37.520;2023-11-21T13:45:18;4.40;;;1.23;;
61204;SDS011;47068;55.780;37.520;2023-11-21T13:47:45;3.67;;;1.70;;
61204;SDS011;47068;55.780;37.520;2023-11-21T13:50:11;4.57;;;1.45;;
61204;SDS011;47068;55.780;37.520;2023-11-21T13:52:42;365.77;;;125.20;;
61204;SDS011;47068;55.780;37.520;2023-11-21T13:55:10;425.17;;;136.20;;
61204;SDS011;47068;55.780;37.520;2023-11-21T13:57:40;4.60;;;1.50;;
61204;SDS011;47068;55.780;37.520;2023-11-21T14:00:10;6.13;;;1.87;;
61204;SDS011;47068;55.780;37.520;2023-11-21T14:02:56;3.42;;;0.98;;
61204;SDS011;47068;55.780;37.520;2023-11-21T14:05:25;3.07;;;0.83;;
61204;SDS011;47068;55.780;37.520;2023-11-21T14:07:54;4.70;;;1.27;;
61204;SDS011;47068;55.780;37.520;2023-11-21T14:10:21;9.50;;;2.30;;
61204;SDS011;47068;55.780;37.520;2023-11-21T14:12:49;3.27;;;0.93;;
61204;SDS011;47068;55.780;37.520;2023-11-21T14:15:15;4.22;;;1.25;;
61204;SDS011;47068;55.780;37.520;2023-11-21T14:17:44;8.20;;;2.17;;
61204;SDS011;47068;55.780;37.520;2023-11-21T14:20:10;350.52;;;99.10;;
61204;SDS011;47068;55.780;37.520;2023-11-21T14:22:41;482.37;;;138.27;;
61204;SDS011;47068;55.780;37.520;2023-11-21T14:25:07;535.67;;;140.57;;
61204;SDS011;47068;55.780;37.520;2023-11-21T14:27:33;528.85;;;131.77;;
61204;SDS011;47068;55.780;37.520;2023-11-21T14:29:58;519.28;;;133.77;;
61204;SDS011;47068;55.780;37.520;2023-11-21T14:32:24;564.72;;;137.07;;
61204;SDS011;47068;55.780;37.520;2023-11-21T14:34:51;552.53;;;146.63;;
61204;SDS011;47068;55.780;37.520;2023-11-21T14:37:17;469.73;;;129.45;;
61204;SDS011;47068;55.780;37.520;2023-11-21T14:39:42;4.07;;;1.30;;
61204;SDS011;47068;55.780;37.520;2023-11-21T14:42:12;11.90;;;2.10;;
61204;SDS011;47068;55.780;37.520;2023-11-21T14:44:40;4.73;;;1.63;;
61204;SDS011;47068;55.780;37.520;2023-11-21T14:47:07;3.17;;;0.90;;
61204;SDS011;47068;55.780;37.520;2023-11-21T14:49:43;2.57;;;1.17;;
61204;SDS011;47068;55.780;37.520;2023-11-21T14:52:21;4.13;;;1.80;;
61204;SDS011;47068;55.780;37.520;2023-11-21T14:55:02;1.90;;;0.83;;
61204;SDS011;47068;55.780;37.520;2023-11-21T14:57:51;2.07;;;0.70;;
61204;SDS011;47068;55.780;37.520;2023-11-21T15:00:17;3.15;;;1.02;;
61204;SDS011;47068;55.780;37.520;2023-11-21T15:03:01;2.53;;;1.20;;
61204;SDS011;47068;55.780;37.520;2023-11-21T15:05:28;4.50;;;2.03;;
61204;SDS011;47068;55.780;37.520;2023-11-21T15:07:54;3.67;;;1.17;;
61204;SDS011;47068;55.780;37.520;2023-11-21T15:10:23;3.67;;;1.63;;
61204;SDS011;47068;55.780;37.520;2023-11-21T15:13:09;4.88;;;1.88;;
61204;SDS011;47068;55.780;37.520;2023-11-21T15:15:36;4.20;;;1.33;;
61204;SDS011;47068;55.780;37.520;2023-11-21T15:20:27;187.40;;;73.23;;
61204;SDS011;47068;55.780;37.520;2023-11-21T15:22:53;18.48;;;16.75;;
61204;SDS011;47068;55.780;37.520;2023-11-21T15:25:18;12.97;;;11.70;;
61204;SDS011;47068;55.780;37.520;2023-11-21T15:27:44;81.03;;;53.70;;